Time;durP1;ratioP1;P1;durP2;ratioP2;P2;SDS_P1;SDS_P2;PMS_P1;PMS_P2;Temp;Humidity;BMP_temperature;BMP_pressure;BME280_temperature;BME280_humidity;BME280_pressure;Samples;Min_cycle;Max_cycle;Signal;HPM_P1;HPM_P2
2023/06/04 00:00:08;;;;;;;12.43;3.45;;;;;;;;;;5012438;28;20073;-72
2023/06/04 00:02:34;;;;;;;9.32;3.80;;;;;;;;;;5006703;28;20113;-73
2023/06/04 00:05:00;;;;;;;10.20;4.88;;;;;;;;;;5012166;28;20495;-72
2023/06/04 00:07:26;;;;;;;9.57;4.68;;;;;;;;;;5012314;28;20111;-72
2023/06/04 00:09:53;;;;;;;8.95;3.22;;;;;;;;;;5012367;28;20037;-73
2023/06/04 00:12:19;;;;;;;6.75;3.40;;;;;;;;;;5012843;28;20372;-74
2023/06/04 00:14:45;;;;;;;5.20;2.67;;;;;;;;;;5014630;28;20030;-72
2023/06/04 00:17:11;;;;;;;7.45;3.10;;;;;;;;;;5014578;28;20026;-73
2023/06/04 00:19:40;;;;;;;10.02;2.85;;;;;;;;;;5012293;28;20037;-72
2023/06/04 00:22:06;;;;;;;8.38;3.25;;;;;;;;;;5011834;28;20045;-72
2023/06/04 00:24:32;;;;;;;6.78;2.53;;;;;;;;;;5012357;28;20096;-73
2023/06/04 00:26:58;;;;;;;7.75;2.80;;;;;;;;;;5011915;28;20057;-73
2023/06/04 00:29:24;;;;;;;8.63;2.72;;;;;;;;;;5012106;28;20104;-74
2023/06/04 00:31:50;;;;;;;9.25;3.22;;;;;;;;;;5011736;28;20033;-72
2023/06/04 00:34:17;;;;;;;7.30;3.08;;;;;;;;;;5012226;28;20344;-72
2023/06/04 00:36:44;;;;;;;6.97;3.15;;;;;;;;;;5011960;28;20452;-73
2023/06/04 00:39:10;;;;;;;8.68;3.00;;;;;;;;;;5011966;28;20026;-74
2023/06/04 00:41:36;;;;;;;7.85;3.05;;;;;;;;;;5012148;28;20454;-72
2023/06/04 00:44:02;;;;;;;7.00;2.85;;;;;;;;;;5011738;28;20025;-73
2023/06/04 00:46:29;;;;;;;8.27;3.05;;;;;;;;;;5011815;28;20104;-73
2023/06/04 00:48:55;;;;;;;13.15;3.70;;;;;;;;;;5011706;28;20029;-73
2023/06/04 00:51:21;;;;;;;6.88;2.90;;;;;;;;;;5011903;28;20029;-73
2023/06/04 00:53:49;;;;;;;6.10;3.17;;;;;;;;;;5011621;28;20022;-73
2023/06/04 00:56:15;;;;;;;6.15;2.72;;;;;;;;;;5011539;28;20030;-73
2023/06/04 00:58:42;;;;;;;7.07;3.15;;;;;;;;;;5010977;28;20490;-73
2023/06/04 01:01:13;;;;;;;7.50;2.92;;;;;;;;;;5011991;28;20029;-73
2023/06/04 01:03:42;;;;;;;6.93;2.92;;;;;;;;;;5011694;28;20055;-73
2023/06/04 01:06:21;;;;;;;9.02;2.72;;;;;;;;;;5012572;28;20089;-72
2023/06/04 01:08:49;;;;;;;7.88;3.13;;;;;;;;;;5013845;28;20041;-72
2023/06/04 01:11:15;;;;;;;7.75;3.00;;;;;;;;;;5013437;28;20038;-72
2023/06/04 01:13:41;;;;;;;9.77;3.05;;;;;;;;;;5012219;28;20037;-73
2023/06/04 01:16:08;;;;;;;6.20;2.95;;;;;;;;;;5011265;28;20399;-73
2023/06/04 01:18:36;;;;;;;6.93;2.92;;;;;;;;;;5011392;28;20365;-73
2023/06/04 01:21:03;;;;;;;6.25;3.10;;;;;;;;;;5011611;28;20022;-73
2023/06/04 01:23:36;;;;;;;7.82;3.35;;;;;;;;;;5011158;28;20108;-72
2023/06/04 01:26:03;;;;;;;6.45;2.83;;;;;;;;;;5011573;28;20105;-72
2023/06/04 01:28:29;;;;;;;7.13;3.08;;;;;;;;;;5013382;28;20075;-73
2023/06/04 01:30:56;;;;;;;6.30;2.95;;;;;;;;;;5010909;28;20053;-73
2023/06/04 01:33:22;;;;;;;15.30;3.10;;;;;;;;;;5011240;28;20097;-72
2023/06/04 01:35:49;;;;;;;9.27;3.20;;;;;;;;;;5011293;28;20033;-73
2023/06/04 01:38:15;;;;;;;6.55;3.15;;;;;;;;;;5011460;28;20026;-73
2023/06/04 01:40:41;;;;;;;8.52;3.03;;;;;;;;;;5011360;28;20025;-73
2023/06/04 01:43:07;;;;;;;5.32;2.60;;;;;;;;;;5011182;28;20380;-73
2023/06/04 01:45:33;;;;;;;9.18;3.38;;;;;;;;;;5012834;28;20037;-74
2023/06/04 01:48:01;;;;;;;6.38;2.75;;;;;;;;;;5011581;28;20471;-73
2023/06/04 01:50:27;;;;;;;6.78;3.75;;;;;;;;;;5012690;28;20483;-73
2023/06/04 01:52:54;;;;;;;7.28;3.25;;;;;;;;;;5011081;28;20030;-73
2023/06/04 01:55:20;;;;;;;8.43;3.47;;;;;;;;;;5011217;28;20477;-73
2023/06/04 01:57:50;;;;;;;6.40;3.00;;;;;;;;;;5010729;28;20065;-73
2023/06/04 02:00:17;;;;;;;7.28;3.10;;;;;;;;;;5011318;28;20104;-73
2023/06/04 02:02:45;;;;;;;7.45;2.75;;;;;;;;;;5011174;28;20029;-74
2023/06/04 02:05:11;;;;;;;6.63;2.75;;;;;;;;;;5011382;28;20523;-73
2023/06/04 02:07:45;;;;;;;7.43;3.58;;;;;;;;;;5011161;28;20030;-72
2023/06/04 02:10:18;;;;;;;8.68;3.38;;;;;;;;;;5014255;28;20129;-72
2023/06/04 02:13:02;;;;;;;7.88;3.17;;;;;;;;;;5014328;28;20545;-73
2023/06/04 02:15:28;;;;;;;7.57;3.05;;;;;;;;;;5014575;28;20077;-73
2023/06/04 02:17:58;;;;;;;6.35;3.08;;;;;;;;;;5014691;28;20113;-72
2023/06/04 02:20:24;;;;;;;7.30;3.05;;;;;;;;;;5015901;28;20157;-71
2023/06/04 02:22:50;;;;;;;6.28;2.88;;;;;;;;;;5018033;28;20048;-72
2023/06/04 02:25:16;;;;;;;8.15;3.00;;;;;;;;;;5016057;28;20541;-71
2023/06/04 02:27:42;;;;;;;6.05;2.65;;;;;;;;;;5014403;28;20053;-72
2023/06/04 02:30:08;;;;;;;7.10;2.85;;;;;;;;;;5014099;28;20098;-72
2023/06/04 02:32:35;;;;;;;6.75;3.03;;;;;;;;;;5014521;28;20061;-71
2023/06/04 02:35:02;;;;;;;7.85;3.47;;;;;;;;;;5014334;28;20017;-71
2023/06/04 02:37:28;;;;;;;6.35;3.17;;;;;;;;;;5014340;28;20026;-71
2023/06/04 02:39:55;;;;;;;6.45;2.72;;;;;;;;;;5020392;28;20025;-70
2023/06/04 02:42:21;;;;;;;4.80;2.75;;;;;;;;;;5033960;28;20029;-71
2023/06/04 02:44:47;;;;;;;6.65;3.28;;;;;;;;;;5033950;28;20078;-72
2023/06/04 02:47:13;;;;;;;7.85;3.30;;;;;;;;;;5033982;28;20100;-72
2023/06/04 02:49:39;;;;;;;8.20;3.30;;;;;;;;;;5034326;28;20431;-71
2023/06/04 02:52:05;;;;;;;9.65;3.80;;;;;;;;;;5033351;28;20021;-71
2023/06/04 02:54:31;;;;;;;4.97;2.88;;;;;;;;;;5033518;28;20097;-71
2023/06/04 02:56:57;;;;;;;10.30;3.17;;;;;;;;;;5035333;28;20057;-70
2023/06/04 02:59:23;;;;;;;8.00;3.80;;;;;;;;;;5035550;28;20033;-71
2023/06/04 03:01:49;;;;;;;6.80;3.42;;;;;;;;;;5032748;28;20025;-71
2023/06/04 03:04:15;;;;;;;9.82;3.63;;;;;;;;;;5033332;28;20083;-72
2023/06/04 03:06:46;;;;;;;10.35;3.83;;;;;;;;;;5032846;28;20028;-72
2023/06/04 03:09:12;;;;;;;7.43;2.85;;;;;;;;;;5032929;28;20030;-70
2023/06/04 03:11:38;;;;;;;8.43;3.20;;;;;;;;;;5033171;28;20053;-71
2023/06/04 03:14:04;;;;;;;9.27;3.08;;;;;;;;;;5032112;28;20033;-71
2023/06/04 03:16:30;;;;;;;7.70;3.22;;;;;;;;;;5032603;28;20109;-71
2023/06/04 03:18:56;;;;;;;7.00;2.55;;;;;;;;;;5032662;28;20112;-71
2023/06/04 03:21:24;;;;;;;4.78;2.72;;;;;;;;;;5031722;28;20029;-72
2023/06/04 03:23:50;;;;;;;7.30;2.90;;;;;;;;;;5033147;28;20022;-73
2023/06/04 03:26:16;;;;;;;5.00;2.50;;;;;;;;;;5033719;28;20053;-73
2023/06/04 03:28:42;;;;;;;6.05;2.88;;;;;;;;;;5032502;28;20026;-71
2023/06/04 03:31:08;;;;;;;4.22;2.78;;;;;;;;;;5032598;28;20029;-72
2023/06/04 03:33:34;;;;;;;9.43;3.05;;;;;;;;;;5030506;28;20026;-70
2023/06/04 03:36:01;;;;;;;10.35;3.22;;;;;;;;;;5031502;28;20025;-72
2023/06/04 03:38:27;;;;;;;7.15;3.00;;;;;;;;;;5031383;28;20025;-72
2023/06/04 03:40:54;;;;;;;12.75;3.67;;;;;;;;;;5031222;28;20032;-71
2023/06/04 03:43:20;;;;;;;6.68;2.72;;;;;;;;;;5030568;28;20029;-70
2023/06/04 03:45:46;;;;;;;8.07;2.70;;;;;;;;;;5031262;28;20030;-71
2023/06/04 03:48:12;;;;;;;4.75;2.72;;;;;;;;;;5030554;28;20513;-71
2023/06/04 03:50:38;;;;;;;8.82;3.25;;;;;;;;;;5030933;28;20022;-70
2023/06/04 03:53:07;;;;;;;5.93;3.05;;;;;;;;;;5030657;28;20029;-71
2023/06/04 03:55:34;;;;;;;6.80;3.00;;;;;;;;;;5031025;28;20049;-70
2023/06/04 03:58:00;;;;;;;8.13;3.00;;;;;;;;;;5030924;28;20072;-72
2023/06/04 04:00:27;;;;;;;12.25;3.38;;;;;;;;;;5029825;28;20026;-71
2023/06/04 04:02:53;;;;;;;6.97;3.10;;;;;;;;;;5030974;28;20572;-71
2023/06/04 04:05:19;;;;;;;7.38;3.20;;;;;;;;;;5032093;28;20457;-71
2023/06/04 04:07:47;;;;;;;6.85;3.20;;;;;;;;;;5032577;28;20089;-71
2023/06/04 04:10:12;;;;;;;10.75;3.20;;;;;;;;;;5031579;28;20057;-72
2023/06/04 04:12:38;;;;;;;5.63;2.72;;;;;;;;;;5032244;28;20057;-71
2023/06/04 04:15:05;;;;;;;10.10;3.15;;;;;;;;;;5032681;28;20075;-71
2023/06/04 04:17:31;;;;;;;7.78;2.95;;;;;;;;;;5032049;28;20021;-72
2023/06/04 04:19:57;;;;;;;8.63;3.00;;;;;;;;;;5032267;28;20029;-72
2023/06/04 04:22:23;;;;;;;8.40;3.13;;;;;;;;;;5031827;28;20036;-73
2023/06/04 04:24:49;;;;;;;13.68;3.30;;;;;;;;;;5032154;28;20506;-73
2023/06/04 04:27:15;;;;;;;12.80;3.03;;;;;;;;;;5031696;28;20490;-72
2023/06/04 04:29:42;;;;;;;7.57;2.92;;;;;;;;;;5031899;28;20025;-73
2023/06/04 04:32:11;;;;;;;10.13;3.13;;;;;;;;;;5031208;28;20104;-73
2023/06/04 04:34:39;;;;;;;10.57;3.20;;;;;;;;;;5032225;28;20053;-73
2023/06/04 04:37:08;;;;;;;7.05;2.92;;;;;;;;;;5032146;28;20024;-71
2023/06/04 04:39:34;;;;;;;7.63;3.20;;;;;;;;;;5032304;28;20025;-71
2023/06/04 04:42:00;;;;;;;6.72;2.72;;;;;;;;;;5031927;28;20026;-70
2023/06/04 04:44:26;;;;;;;7.32;2.90;;;;;;;;;;5034110;28;20022;-71
2023/06/04 04:46:52;;;;;;;8.93;3.20;;;;;;;;;;5034839;28;20089;-72
2023/06/04 04:49:19;;;;;;;12.18;3.38;;;;;;;;;;5031758;28;20057;-73
2023/06/04 04:51:47;;;;;;;7.97;2.95;;;;;;;;;;5032884;28;20026;-71
2023/06/04 04:54:13;;;;;;;10.63;3.83;;;;;;;;;;5031936;28;20026;-72
2023/06/04 04:56:39;;;;;;;10.32;3.95;;;;;;;;;;5033046;28;20101;-72
2023/06/04 04:59:05;;;;;;;13.13;3.40;;;;;;;;;;5032056;28;20407;-72
2023/06/04 05:01:31;;;;;;;11.25;3.35;;;;;;;;;;5031489;28;20483;-71
2023/06/04 05:03:57;;;;;;;9.85;3.78;;;;;;;;;;5031262;28;20513;-71
2023/06/04 05:06:23;;;;;;;13.98;3.78;;;;;;;;;;5022783;28;20030;-71
2023/06/04 05:08:49;;;;;;;9.13;3.25;;;;;;;;;;5011202;28;20160;-71
2023/06/04 05:11:15;;;;;;;10.93;3.55;;;;;;;;;;5011513;28;20014;-71
2023/06/04 05:13:44;;;;;;;13.52;3.50;;;;;;;;;;5009125;28;20120;-70
2023/06/04 05:16:11;;;;;;;10.20;3.35;;;;;;;;;;5010247;28;20483;-75
2023/06/04 05:18:41;;;;;;;10.60;3.28;;;;;;;;;;5012538;28;20374;-76
2023/06/04 05:21:07;;;;;;;14.82;4.10;;;;;;;;;;5010488;28;20025;-75
2023/06/04 05:23:37;;;;;;;13.75;3.30;;;;;;;;;;5009904;28;20450;-75
2023/06/04 05:26:03;;;;;;;13.98;3.53;;;;;;;;;;5008218;28;20026;-74
2023/06/04 05:28:29;;;;;;;14.40;4.03;;;;;;;;;;5010315;28;20620;-73
2023/06/04 05:30:59;;;;;;;12.75;3.78;;;;;;;;;;5010252;28;20022;-75
2023/06/04 05:33:30;;;;;;;16.75;4.28;;;;;;;;;;5004886;28;20026;-74
2023/06/04 05:35:57;;;;;;;12.20;3.88;;;;;;;;;;5005166;28;20048;-71
2023/06/04 05:38:26;;;;;;;13.40;3.70;;;;;;;;;;5010437;28;20033;-70
2023/06/04 05:40:54;;;;;;;17.52;4.05;;;;;;;;;;5002017;28;20521;-72
2023/06/04 05:43:21;;;;;;;15.60;3.50;;;;;;;;;;5008991;28;20105;-79
2023/06/04 05:45:47;;;;;;;17.85;3.72;;;;;;;;;;5014085;28;20021;-72
2023/06/04 05:48:13;;;;;;;15.30;3.90;;;;;;;;;;5014804;28;20033;-73
2023/06/04 05:50:39;;;;;;;16.63;3.60;;;;;;;;;;5014831;28;20032;-73
2023/06/04 05:53:05;;;;;;;18.17;4.18;;;;;;;;;;5012642;28;20104;-75
2023/06/04 05:55:31;;;;;;;11.77;3.70;;;;;;;;;;5014893;28;20018;-72
2023/06/04 05:57:57;;;;;;;12.88;3.40;;;;;;;;;;5014768;28;20045;-72
2023/06/04 06:00:23;;;;;;;14.90;3.95;;;;;;;;;;5014894;28;20034;-73
2023/06/04 06:02:53;;;;;;;17.73;3.65;;;;;;;;;;5009681;28;20033;-74
2023/06/04 06:05:19;;;;;;;11.68;3.17;;;;;;;;;;5015070;28;20113;-73
2023/06/04 06:07:45;;;;;;;20.20;3.58;;;;;;;;;;5014783;28;20114;-71
2023/06/04 06:10:11;;;;;;;16.70;3.78;;;;;;;;;;5014409;28;20168;-73
2023/06/04 06:12:38;;;;;;;11.38;3.53;;;;;;;;;;5014523;28;20376;-71
2023/06/04 06:15:04;;;;;;;10.35;2.97;;;;;;;;;;5014695;28;20022;-72
2023/06/04 06:17:30;;;;;;;10.20;3.20;;;;;;;;;;5015665;28;20026;-73
2023/06/04 06:19:56;;;;;;;13.38;3.50;;;;;;;;;;5019575;28;20594;-74
2023/06/04 06:22:23;;;;;;;11.77;3.05;;;;;;;;;;5014808;28;20049;-80
2023/06/04 06:24:49;;;;;;;16.67;3.28;;;;;;;;;;5015041;28;20030;-72
2023/06/04 06:27:15;;;;;;;16.40;3.15;;;;;;;;;;5015358;28;20132;-71
2023/06/04 06:29:42;;;;;;;15.00;2.88;;;;;;;;;;5014675;28;20022;-71
2023/06/04 06:32:08;;;;;;;12.93;3.53;;;;;;;;;;5014842;28;20030;-72
2023/06/04 06:34:34;;;;;;;13.98;3.50;;;;;;;;;;5015373;28;20368;-71
2023/06/04 06:37:00;;;;;;;14.27;3.42;;;;;;;;;;5015666;28;20025;-73
2023/06/04 06:39:26;;;;;;;15.90;3.65;;;;;;;;;;5015261;28;20038;-72
2023/06/04 06:41:52;;;;;;;10.43;2.80;;;;;;;;;;5015200;28;20157;-70
2023/06/04 06:44:18;;;;;;;10.48;3.20;;;;;;;;;;5015136;28;20034;-71
2023/06/04 06:46:44;;;;;;;13.10;3.40;;;;;;;;;;5015726;28;20038;-71
2023/06/04 06:49:10;;;;;;;12.50;2.92;;;;;;;;;;5016474;28;20502;-72
2023/06/04 06:51:36;;;;;;;9.82;3.17;;;;;;;;;;5013941;28;20085;-72
2023/06/04 06:54:02;;;;;;;11.93;2.67;;;;;;;;;;5011942;28;20026;-71
2023/06/04 06:56:28;;;;;;;13.80;2.70;;;;;;;;;;5013187;28;20101;-72
2023/06/04 06:58:54;;;;;;;9.32;2.58;;;;;;;;;;5013407;28;20084;-71
2023/06/04 07:01:21;;;;;;;10.27;2.60;;;;;;;;;;5012951;28;20022;-71
2023/06/04 07:03:47;;;;;;;12.50;2.70;;;;;;;;;;5012440;28;20030;-72
2023/06/04 07:06:13;;;;;;;10.98;2.42;;;;;;;;;;5012128;28;20038;-71
2023/06/04 07:08:40;;;;;;;9.40;2.95;;;;;;;;;;5012679;28;20038;-73
2023/06/04 07:11:06;;;;;;;10.45;3.10;;;;;;;;;;5014542;28;20021;-71
2023/06/04 07:13:34;;;;;;;14.43;3.03;;;;;;;;;;5016542;28;20018;-73
2023/06/04 07:16:00;;;;;;;9.73;2.75;;;;;;;;;;5012062;28;20018;-71
2023/06/04 07:18:26;;;;;;;9.90;3.00;;;;;;;;;;5012898;28;20498;-71
2023/06/04 07:20:52;;;;;;;13.07;2.80;;;;;;;;;;5016379;28;20026;-72
2023/06/04 07:23:19;;;;;;;11.32;2.53;;;;;;;;;;5017554;28;20121;-73
2023/06/04 07:25:45;;;;;;;9.18;2.38;;;;;;;;;;5018700;28;20152;-72
2023/06/04 07:28:11;;;;;;;9.85;3.03;;;;;;;;;;5013336;28;20022;-71
2023/06/04 07:30:38;;;;;;;10.65;2.75;;;;;;;;;;5013607;28;20030;-71
2023/06/04 07:33:04;;;;;;;10.15;2.85;;;;;;;;;;5012250;28;20522;-72
2023/06/04 07:35:30;;;;;;;10.73;2.80;;;;;;;;;;5013231;28;20038;-72
2023/06/04 07:37:56;;;;;;;6.43;2.45;;;;;;;;;;5012308;28;20105;-73
2023/06/04 07:40:22;;;;;;;9.77;2.80;;;;;;;;;;5009790;28;20034;-71
2023/06/04 07:42:48;;;;;;;14.15;2.85;;;;;;;;;;5011294;28;20087;-70
2023/06/04 07:45:14;;;;;;;6.65;2.33;;;;;;;;;;5012126;28;20360;-71
2023/06/04 07:47:40;;;;;;;9.07;2.55;;;;;;;;;;5011862;28;20038;-73
2023/06/04 07:50:07;;;;;;;5.95;2.35;;;;;;;;;;5012477;28;20033;-73
2023/06/04 07:52:33;;;;;;;8.43;2.35;;;;;;;;;;5011067;28;20554;-73
2023/06/04 07:55:00;;;;;;;11.40;2.20;;;;;;;;;;5012192;28;20021;-72
2023/06/04 07:57:26;;;;;;;4.88;1.85;;;;;;;;;;5012612;28;20500;-70
2023/06/04 07:59:52;;;;;;;5.43;1.88;;;;;;;;;;5012313;28;20034;-72
2023/06/04 08:02:18;;;;;;;5.40;1.60;;;;;;;;;;5011214;28;20041;-73
2023/06/04 08:04:46;;;;;;;4.95;1.58;;;;;;;;;;5012265;28;20539;-71
2023/06/04 08:07:12;;;;;;;6.72;1.80;;;;;;;;;;5011475;28;20026;-72
2023/06/04 08:09:38;;;;;;;6.43;1.30;;;;;;;;;;5011590;28;20403;-70
2023/06/04 08:12:04;;;;;;;9.15;1.77;;;;;;;;;;5012137;28;20025;-72
2023/06/04 08:14:31;;;;;;;4.50;1.15;;;;;;;;;;5010589;28;20026;-71
2023/06/04 08:16:58;;;;;;;4.55;1.60;;;;;;;;;;5011171;28;20368;-72
2023/06/04 08:19:24;;;;;;;3.97;1.60;;;;;;;;;;5011454;28;20034;-71
2023/06/04 08:21:50;;;;;;;6.55;1.40;;;;;;;;;;5011661;28;20022;-73
2023/06/04 08:24:16;;;;;;;8.13;1.65;;;;;;;;;;5014618;28;20399;-73
2023/06/04 08:26:42;;;;;;;7.10;1.67;;;;;;;;;;5015177;28;20535;-74
2023/06/04 08:29:10;;;;;;;3.88;1.65;;;;;;;;;;5016898;28;20074;-72
2023/06/04 08:31:36;;;;;;;5.15;1.73;;;;;;;;;;5012261;28;20533;-73
2023/06/04 08:34:05;;;;;;;7.78;2.30;;;;;;;;;;5010900;28;20076;-73
2023/06/04 08:36:32;;;;;;;7.03;1.77;;;;;;;;;;5011216;28;20037;-72
2023/06/04 08:38:58;;;;;;;6.75;1.60;;;;;;;;;;5012358;28;20554;-71
2023/06/04 08:41:35;;;;;;;5.88;1.85;;;;;;;;;;5013747;28;20034;-72
2023/06/04 08:44:02;;;;;;;3.80;1.65;;;;;;;;;;5012141;28;20110;-71
2023/06/04 08:46:29;;;;;;;4.68;1.45;;;;;;;;;;5011195;28;20299;-73
2023/06/04 08:48:56;;;;;;;6.93;1.98;;;;;;;;;;5009514;28;20109;-73
2023/06/04 08:51:23;;;;;;;4.18;1.80;;;;;;;;;;5011207;28;20025;-72
2023/06/04 08:53:53;;;;;;;6.80;1.70;;;;;;;;;;5009694;28;20483;-71
2023/06/04 08:56:22;;;;;;;8.23;2.28;;;;;;;;;;5010806;28;20045;-72
2023/06/04 08:58:48;;;;;;;5.13;1.90;;;;;;;;;;5010594;28;20017;-72
2023/06/04 09:01:14;;;;;;;8.82;2.28;;;;;;;;;;5010351;28;20034;-71
2023/06/04 09:03:41;;;;;;;4.50;1.60;;;;;;;;;;5010574;28;20515;-74
2023/06/04 09:06:08;;;;;;;5.10;1.83;;;;;;;;;;5010894;28;20035;-74
2023/06/04 09:08:35;;;;;;;8.68;2.30;;;;;;;;;;5011627;28;20488;-72
2023/06/04 09:11:05;;;;;;;8.63;2.10;;;;;;;;;;5010674;28;20040;-73
2023/06/04 09:13:32;;;;;;;13.55;2.90;;;;;;;;;;5009833;28;20029;-72
2023/06/04 09:16:05;;;;;;;4.68;2.05;;;;;;;;;;5011481;28;20022;-73
2023/06/04 09:18:32;;;;;;;7.30;2.30;;;;;;;;;;5014057;28;20095;-72
2023/06/04 09:21:05;;;;;;;8.20;1.95;;;;;;;;;;5019335;28;20030;-73
2023/06/04 09:23:31;;;;;;;7.43;2.13;;;;;;;;;;5015341;28;20085;-74
2023/06/04 09:26:06;;;;;;;7.95;1.70;;;;;;;;;;5015531;28;20041;-73
2023/06/04 09:28:32;;;;;;;8.80;1.80;;;;;;;;;;5015955;28;20077;-72
2023/06/04 09:30:58;;;;;;;3.60;1.42;;;;;;;;;;5015748;28;20164;-72
2023/06/04 09:33:26;;;;;;;4.72;1.90;;;;;;;;;;5014703;28;20044;-71
2023/06/04 09:35:56;;;;;;;5.28;1.63;;;;;;;;;;5015979;28;20072;-70
2023/06/04 09:38:22;;;;;;;10.70;2.30;;;;;;;;;;5017862;28;20014;-72
2023/06/04 09:40:49;;;;;;;5.45;2.05;;;;;;;;;;5018980;28;20029;-71
2023/06/04 09:43:24;;;;;;;8.52;2.42;;;;;;;;;;5015096;28;20022;-72
2023/06/04 09:45:51;;;;;;;5.10;2.05;;;;;;;;;;5014703;28;20498;-72
2023/06/04 09:48:21;;;;;;;5.72;2.08;;;;;;;;;;5014171;28;20255;-72
2023/06/04 09:50:47;;;;;;;5.70;2.40;;;;;;;;;;5013914;28;20022;-73
2023/06/04 09:53:14;;;;;;;7.45;1.77;;;;;;;;;;5013476;28;20026;-73
2023/06/04 09:55:40;;;;;;;4.45;1.88;;;;;;;;;;5014012;28;20479;-71
2023/06/04 09:58:06;;;;;;;5.68;1.90;;;;;;;;;;5013294;28;20049;-71
2023/06/04 10:00:32;;;;;;;6.85;2.03;;;;;;;;;;5016119;28;20387;-72
2023/06/04 10:03:01;;;;;;;5.15;1.95;;;;;;;;;;5021037;28;20026;-71
2023/06/04 10:05:29;;;;;;;7.88;2.00;;;;;;;;;;5020880;28;20054;-72
2023/06/04 10:07:56;;;;;;;6.63;1.73;;;;;;;;;;5015140;28;20056;-72
2023/06/04 10:10:25;;;;;;;7.80;1.70;;;;;;;;;;5012871;28;20026;-72
2023/06/04 10:12:57;;;;;;;7.10;1.98;;;;;;;;;;5014172;28;20025;-72
2023/06/04 10:15:23;;;;;;;9.13;2.00;;;;;;;;;;5014293;28;20044;-72
2023/06/04 10:17:50;;;;;;;4.43;1.83;;;;;;;;;;4998732;28;20030;-72
2023/06/04 10:20:19;;;;;;;9.55;2.92;;;;;;;;;;5016687;28;20092;-71
2023/06/04 10:22:46;;;;;;;6.15;2.13;;;;;;;;;;5014724;28;20480;-72
2023/06/04 10:25:12;;;;;;;10.85;2.10;;;;;;;;;;5016192;28;20053;-72
2023/06/04 10:27:38;;;;;;;6.25;1.70;;;;;;;;;;5016157;28;20069;-73
2023/06/04 10:30:05;;;;;;;4.40;1.63;;;;;;;;;;5015718;28;20034;-72
2023/06/04 10:32:31;;;;;;;8.55;2.13;;;;;;;;;;5015683;28;20029;-72
2023/06/04 10:34:57;;;;;;;5.63;1.85;;;;;;;;;;5015913;28;20371;-73
2023/06/04 10:37:24;;;;;;;3.70;1.50;;;;;;;;;;5016367;28;20436;-73
2023/06/04 10:39:54;;;;;;;9.50;1.83;;;;;;;;;;5015477;28;20022;-74
2023/06/04 10:42:21;;;;;;;5.43;1.83;;;;;;;;;;5015666;28;20040;-72
2023/06/04 10:44:54;;;;;;;6.80;2.00;;;;;;;;;;5016446;28;20414;-73
2023/06/04 10:47:21;;;;;;;9.68;2.50;;;;;;;;;;5017753;28;20045;-72
2023/06/04 10:49:47;;;;;;;5.53;1.63;;;;;;;;;;5016115;28;20025;-72
2023/06/04 10:52:13;;;;;;;7.55;2.53;;;;;;;;;;5018849;28;20029;-75
2023/06/04 10:54:39;;;;;;;5.13;2.25;;;;;;;;;;5017476;28;20033;-73
2023/06/04 10:57:14;;;;;;;3.53;1.80;;;;;;;;;;5015059;28;20490;-72
2023/06/04 10:59:41;;;;;;;6.38;1.75;;;;;;;;;;5015083;28;20129;-73
2023/06/04 11:02:07;;;;;;;6.85;1.85;;;;;;;;;;5015263;28;20076;-74
2023/06/04 11:04:33;;;;;;;8.48;2.25;;;;;;;;;;5013526;28;20054;-74
2023/06/04 11:07:09;;;;;;;6.22;1.80;;;;;;;;;;5013197;28;20025;-71
2023/06/04 11:09:36;;;;;;;9.85;2.53;;;;;;;;;;5013052;28;20033;-73
2023/06/04 11:12:03;;;;;;;9.25;2.47;;;;;;;;;;5012927;28;20033;-72
2023/06/04 11:14:29;;;;;;;7.88;2.33;;;;;;;;;;5013207;28;20040;-73
2023/06/04 11:16:55;;;;;;;6.18;1.90;;;;;;;;;;5014501;28;20040;-72
2023/06/04 11:19:21;;;;;;;3.95;1.73;;;;;;;;;;5016507;28;20476;-73
2023/06/04 11:21:48;;;;;;;7.35;2.05;;;;;;;;;;5017092;28;20041;-73
2023/06/04 11:24:14;;;;;;;6.45;1.60;;;;;;;;;;5019964;28;20064;-73
2023/06/04 11:26:40;;;;;;;14.88;2.97;;;;;;;;;;5012500;28;20032;-73
2023/06/04 11:29:07;;;;;;;9.75;2.40;;;;;;;;;;5012999;28;20499;-72
2023/06/04 11:31:43;;;;;;;6.25;1.80;;;;;;;;;;5012917;28;20392;-72
2023/06/04 11:34:11;;;;;;;6.43;2.25;;;;;;;;;;5012970;28;20140;-72
2023/06/04 11:36:37;;;;;;;5.07;1.83;;;;;;;;;;5012847;28;20022;-73
2023/06/04 11:39:07;;;;;;;5.63;1.98;;;;;;;;;;5012593;28;20598;-72
2023/06/04 11:41:34;;;;;;;6.82;1.83;;;;;;;;;;5011858;28;20025;-72
2023/06/04 11:44:04;;;;;;;5.93;1.70;;;;;;;;;;5012584;28;20029;-72
2023/06/04 11:46:30;;;;;;;6.03;1.50;;;;;;;;;;5013814;28;20025;-72
2023/06/04 11:48:57;;;;;;;4.13;1.83;;;;;;;;;;5017271;28;20038;-73
2023/06/04 11:51:23;;;;;;;7.35;1.30;;;;;;;;;;5013848;28;20018;-72
2023/06/04 11:53:49;;;;;;;3.33;1.40;;;;;;;;;;5013050;28;20021;-72
2023/06/04 11:56:15;;;;;;;4.72;1.83;;;;;;;;;;5012885;28;20022;-73
2023/06/04 11:58:42;;;;;;;4.53;1.83;;;;;;;;;;5012596;28;20030;-73
2023/06/04 12:01:08;;;;;;;7.72;2.17;;;;;;;;;;5012348;28;20026;-72
2023/06/04 12:03:38;;;;;;;4.38;1.80;;;;;;;;;;5013590;28;20109;-72
2023/06/04 12:06:17;;;;;;;4.68;1.73;;;;;;;;;;5014324;28;20017;-72
2023/06/04 12:08:47;;;;;;;6.40;2.15;;;;;;;;;;5019754;28;20037;-73
2023/06/04 12:11:30;;;;;;;8.48;2.00;;;;;;;;;;5021523;28;20082;-73
2023/06/04 12:13:57;;;;;;;5.30;2.03;;;;;;;;;;5019188;28;20061;-71
2023/06/04 12:16:24;;;;;;;6.78;1.58;;;;;;;;;;5013534;28;20026;-72
2023/06/04 12:18:50;;;;;;;3.22;1.27;;;;;;;;;;5014713;28;20029;-72
2023/06/04 12:21:27;;;;;;;4.63;1.48;;;;;;;;;;5012019;28;20041;-72
2023/06/04 12:24:13;;;;;;;4.72;1.65;;;;;;;;;;5012347;28;20075;-72
2023/06/04 12:26:40;;;;;;;4.97;1.73;;;;;;;;;;5012706;28;20049;-73
2023/06/04 12:29:15;;;;;;;3.28;1.80;;;;;;;;;;5012283;28;20022;-72
2023/06/04 12:31:42;;;;;;;5.03;1.30;;;;;;;;;;5013062;28;20094;-72
2023/06/04 12:34:08;;;;;;;4.50;2.10;;;;;;;;;;5015393;28;20101;-75
2023/06/04 12:36:34;;;;;;;3.97;1.92;;;;;;;;;;5014921;28;20026;-73
2023/06/04 12:39:01;;;;;;;3.30;1.25;;;;;;;;;;5014592;28;20030;-73
2023/06/04 12:41:28;;;;;;;4.03;1.70;;;;;;;;;;5017800;28;20025;-74
2023/06/04 12:43:54;;;;;;;4.63;1.40;;;;;;;;;;5018018;28;20065;-73
2023/06/04 12:46:21;;;;;;;4.63;1.60;;;;;;;;;;5017880;28;20038;-73
2023/06/04 12:48:47;;;;;;;2.75;1.38;;;;;;;;;;5014162;28;20036;-72
2023/06/04 12:51:13;;;;;;;8.07;1.95;;;;;;;;;;5012448;28;20093;-73
2023/06/04 12:53:40;;;;;;;5.45;1.70;;;;;;;;;;5012612;28;20058;-72
2023/06/04 12:56:06;;;;;;;5.35;1.60;;;;;;;;;;5012568;28;20014;-73
2023/06/04 12:58:32;;;;;;;8.30;2.03;;;;;;;;;;5011971;28;20026;-71
2023/06/04 13:00:58;;;;;;;5.10;2.03;;;;;;;;;;5012210;28;20030;-71
2023/06/04 13:03:24;;;;;;;6.95;2.20;;;;;;;;;;5012126;28;20068;-72
2023/06/04 13:05:51;;;;;;;3.13;1.83;;;;;;;;;;5012493;28;20030;-73
2023/06/04 13:08:17;;;;;;;5.45;1.95;;;;;;;;;;5012394;28;20450;-72
2023/06/04 13:10:43;;;;;;;4.78;1.88;;;;;;;;;;5011659;28;20068;-72
2023/06/04 13:13:09;;;;;;;5.40;2.13;;;;;;;;;;5014567;28;20036;-73
2023/06/04 13:15:35;;;;;;;3.78;1.50;;;;;;;;;;5019252;28;20057;-74
2023/06/04 13:18:02;;;;;;;5.03;1.98;;;;;;;;;;5013322;28;20026;-73
2023/06/04 13:20:28;;;;;;;3.55;1.58;;;;;;;;;;5013161;28;20030;-74
2023/06/04 13:22:55;;;;;;;5.47;1.80;;;;;;;;;;5011471;28;20041;-71
2023/06/04 13:25:21;;;;;;;5.05;1.90;;;;;;;;;;5010374;28;20026;-72
2023/06/04 13:27:47;;;;;;;5.85;2.22;;;;;;;;;;5016263;28;20065;-72
2023/06/04 13:30:13;;;;;;;6.60;2.17;;;;;;;;;;5020090;28;20105;-73
2023/06/04 13:32:40;;;;;;;2.95;1.60;;;;;;;;;;5034665;28;20150;-74
2023/06/04 13:35:06;;;;;;;4.25;1.90;;;;;;;;;;5034853;28;20478;-74
2023/06/04 13:37:32;;;;;;;8.55;1.98;;;;;;;;;;5034011;28;20026;-72
2023/06/04 13:39:58;;;;;;;7.75;2.28;;;;;;;;;;5034567;28;20091;-74
2023/06/04 13:42:24;;;;;;;7.13;2.22;;;;;;;;;;5036991;28;20017;-73
2023/06/04 13:44:50;;;;;;;7.00;2.00;;;;;;;;;;5038914;28;20486;-73
2023/06/04 13:47:18;;;;;;;6.03;1.98;;;;;;;;;;5040089;28;20028;-73
2023/06/04 13:49:44;;;;;;;3.88;1.75;;;;;;;;;;5038804;28;20029;-73
2023/06/04 13:52:10;;;;;;;7.15;2.55;;;;;;;;;;5035374;28;20029;-73
2023/06/04 13:54:36;;;;;;;4.15;2.10;;;;;;;;;;5035395;28;20025;-73
2023/06/04 13:57:03;;;;;;;4.53;2.30;;;;;;;;;;5037360;28;20025;-75
2023/06/04 13:59:30;;;;;;;4.57;1.52;;;;;;;;;;5041039;28;20032;-72
2023/06/04 14:01:57;;;;;;;6.88;1.67;;;;;;;;;;5030456;28;20029;-72
2023/06/04 14:04:23;;;;;;;4.25;1.73;;;;;;;;;;5031369;28;20520;-74
2023/06/04 14:06:49;;;;;;;5.28;1.70;;;;;;;;;;5035121;28;20034;-73
2023/06/04 14:09:15;;;;;;;4.53;1.85;;;;;;;;;;5035636;28;20441;-72
2023/06/04 14:11:41;;;;;;;5.22;2.70;;;;;;;;;;5034307;28;20383;-73
2023/06/04 14:14:08;;;;;;;4.05;1.90;;;;;;;;;;5034667;28;20029;-73
2023/06/04 14:16:34;;;;;;;5.82;2.22;;;;;;;;;;5034822;28;20471;-73
2023/06/04 14:19:00;;;;;;;3.20;1.70;;;;;;;;;;5034499;28;20044;-73
2023/06/04 14:21:27;;;;;;;3.10;2.00;;;;;;;;;;5034486;28;20387;-73
2023/06/04 14:23:53;;;;;;;4.28;1.75;;;;;;;;;;5033837;28;20029;-73
2023/06/04 14:26:20;;;;;;;4.10;1.73;;;;;;;;;;5035634;28;20367;-73
2023/06/04 14:28:46;;;;;;;3.83;1.70;;;;;;;;;;5035538;28;20022;-72
2023/06/04 14:31:12;;;;;;;4.50;2.08;;;;;;;;;;5034520;28;20071;-73
2023/06/04 14:33:38;;;;;;;4.40;1.58;;;;;;;;;;5033527;28;20021;-73
2023/06/04 14:36:04;;;;;;;3.80;1.90;;;;;;;;;;5033731;28;20025;-72
2023/06/04 14:38:31;;;;;;;4.70;2.38;;;;;;;;;;5034126;28;20049;-72